^^
Datos históricos de la estación: Murcia-Puente Tocinos
Diario Informe para Septiembre 30, 2019 Unidades:  Métrico    Ingés   Ambas
Diario Semanal Mensual Anual
  Máxima: Mínima: Promedio:
Temperatura: 34.9 °C 22.4 °C 28.8 °C
Punto de rocio: 15.9 °C 7.2 °C 12.6 °C
Humedad: 57% 18.6% 39%
Velocidad viento: 17.2km/h 0km/h 7.8km/h
Racha viento: 32.2km/h - -
Viento- - ESE
Presión: 1015.4 hPa 1013.4 hPa -
Precipitación: 0.0 mm    
 
 
Tabla de datos para Septiembre 30, 2019
Hora Temperatura Punto de rocio Presión Viento Velocidad viento Racha viento Humedad Intensidad lluvia(por hora) Nubes
00:04 26.7 °C 15.1 °C 1013.9 hPa NE 3.9 km/h 8 km/h 49% 0.0 mm
00:09 26.7 °C 15.1 °C 1013.9 hPa NE 3.9 km/h 8 km/h 49% 0.0 mm
00:14 26.6 °C 15.1 °C 1013.9 hPa NE 3.9 km/h 5.6 km/h 49.2% 0.0 mm
00:19 26.5 °C 15.2 °C 1014.0 hPa NNE 3.5 km/h 4.8 km/h 50% 0.0 mm
00:24 26.4 °C 15.1 °C 1014.0 hPa NNE 2.2 km/h 6.4 km/h 50% 0.0 mm
00:29 26.3 °C 15.1 °C 1014.0 hPa NNE 2.2 km/h 8 km/h 50% 0.0 mm
00:34 26.3 °C 15.1 °C 1014.3 hPa NNE 2.2 km/h 8 km/h 50% 0.0 mm
00:39 26.3 °C 15 °C 1014.3 hPa NNE 2.2 km/h 5.6 km/h 50% 0.0 mm
00:44 26.2 °C 14.9 °C 1014.3 hPa NNE 2.2 km/h 8.4 km/h 50% 0.0 mm
00:49 26.2 °C 15.1 °C 1014.3 hPa NNE 2.8 km/h 9.3 km/h 50.3% 0.0 mm
00:54 26.1 °C 15.1 °C 1014.2 hPa NNE 4.7 km/h 9.7 km/h 51% 0.0 mm
00:59 25.9 °C 15.1 °C 1014.2 hPa NNE 4.3 km/h 8 km/h 51.2% 0.0 mm
01:04 25.8 °C 15.2 °C 1014.2 hPa North 3.2 km/h 9.5 km/h 51.9% 0.0 mm
01:09 25.7 °C 15.1 °C 1014.2 hPa North 3.6 km/h 9.7 km/h 52% 0.0 mm
01:14 25.6 °C 15 °C 1014.2 hPa North 4.7 km/h 8 km/h 52% 0.0 mm
01:19 25.6 °C 15 °C 1014.3 hPa NE 4.2 km/h 8 km/h 52% 0.0 mm
01:24 25.6 °C 15 °C 1014.3 hPa ENE 2.9 km/h 8 km/h 52.2% 0.0 mm
01:29 25.4 °C 15.1 °C 1014.3 hPa Este 3 km/h 8 km/h 53% 0.0 mm
01:34 25.3 °C 15.1 °C 1014.3 hPa Este 3.2 km/h 5.8 km/h 53% 0.0 mm
01:39 25.2 °C 15.1 °C 1014.2 hPa Este 3.1 km/h 7.4 km/h 53.3% 0.0 mm
01:44 25.1 °C 15.1 °C 1014.2 hPa Este 2.9 km/h 8 km/h 54% 0.0 mm
01:49 25.1 °C 15.1 °C 1014.3 hPa NE 2.9 km/h 7.6 km/h 54% 0.0 mm
01:54 25 °C 15 °C 1014.3 hPa ENE 2.9 km/h 8 km/h 54% 0.0 mm
01:59 24.9 °C 15 °C 1014.3 hPa Este 3 km/h 8 km/h 54.1% 0.0 mm
02:04 24.8 °C 15.2 °C 1014.4 hPa Este 3.2 km/h 6.4 km/h 54.9% 0.0 mm
02:09 24.8 °C 15.2 °C 1014.4 hPa Este 3.2 km/h 6.4 km/h 55% 0.0 mm
02:14 24.8 °C 15.2 °C 1014.4 hPa ESE 3.2 km/h 6.4 km/h 55% 0.0 mm
02:19 24.8 °C 15.2 °C 1014.5 hPa SSE 3.2 km/h 8 km/h 55% 0.0 mm
02:24 24.8 °C 15.1 °C 1014.5 hPa SSE 3.2 km/h 8 km/h 55% 0.0 mm
02:29 24.8 °C 15.2 °C 1014.5 hPa SSE 3 km/h 4.8 km/h 55% 0.0 mm
02:34 24.8 °C 15.2 °C 1014.5 hPa SSE 2.2 km/h 4.7 km/h 55% 0.0 mm
02:39 24.8 °C 15.2 °C 1014.3 hPa SSE 2.2 km/h 4.8 km/h 55% 0.0 mm
02:44 24.7 °C 15.1 °C 1014.3 hPa SSE 2.2 km/h 4.8 km/h 55% 0.0 mm
02:49 24.7 °C 15.1 °C 1014.4 hPa SE 1.7 km/h 5.8 km/h 55% 0.0 mm
02:54 24.7 °C 15.1 °C 1014.4 hPa Calm   6.4 km/h 55% 0.0 mm
02:59 24.7 °C 15.2 °C 1014.4 hPa ESE 0.7 km/h 4.8 km/h 55.4% 0.0 mm
03:04 24.7 °C 15.2 °C 1014.4 hPa NE 2.2 km/h 7.4 km/h 55.8% 0.0 mm
03:09 24.5 °C 15.2 °C 1014.3 hPa NNE 2.4 km/h 8 km/h 56% 0.0 mm
03:14 24.4 °C 15.2 °C 1014.3 hPa NNE 2.9 km/h 3.2 km/h 56.4% 0.0 mm
03:19 24.3 °C 15.2 °C 1014.3 hPa NNE 2.3 km/h   57% 0.0 mm
03:24 24.3 °C 15.1 °C 1014.2 hPa Calm     56.7% 0.0 mm
03:29 24.3 °C 14.9 °C 1014.2 hPa Calm   4.7 km/h 55.8% 0.0 mm
03:34 24.2 °C 14.5 °C 1014.2 hPa Calm   5 km/h 54.8% 0.0 mm
03:39 24.2 °C 13.9 °C 1014.1 hPa ESE 0.5 km/h 6.4 km/h 52.6% 0.0 mm
03:44 24.3 °C 13.6 °C 1014.1 hPa ESE 2.2 km/h 8 km/h 51.3% 0.0 mm
03:49 24.3 °C 13.5 °C 1014.1 hPa ESE 2.2 km/h 4.8 km/h 51% 0.0 mm
03:54 24.3 °C 13.7 °C 1014.0 hPa ESE 2.2 km/h 3.7 km/h 51.6% 0.0 mm
03:59 24.3 °C 13.8 °C 1014.0 hPa ESE 2 km/h 4.7 km/h 52.1% 0.0 mm
04:04 24.2 °C 13.5 °C 1014.0 hPa Calm   5.8 km/h 51.3% 0.0 mm
04:09 24.1 °C 13.3 °C 1014.0 hPa SSE 1.1 km/h 8.4 km/h 51% 0.0 mm
04:14 24 °C 13.2 °C 1014.0 hPa Sur 4.7 km/h 8.4 km/h 51% 0.0 mm
04:19 23.9 °C 13.3 °C 1014.0 hPa Sur 4.7 km/h 8.4 km/h 51.5% 0.0 mm
04:24 23.9 °C 13.5 °C 1013.9 hPa SSO 5 km/h 9.5 km/h 52% 0.0 mm
04:29 24 °C 13.6 °C 1013.9 hPa SSO 5 km/h 9.7 km/h 52% 0.0 mm
04:34 24.1 °C 13.6 °C 1013.9 hPa SO 5 km/h 8 km/h 52% 0.0 mm
04:39 24.1 °C 13.6 °C 1013.8 hPa SO 4.6 km/h 8 km/h 52% 0.0 mm
04:44 24.1 °C 13.4 °C 1013.8 hPa SO 3.2 km/h 9.5 km/h 51.3% 0.0 mm
04:49 24.1 °C 13.4 °C 1013.8 hPa SO 3.4 km/h 9.7 km/h 51.3% 0.0 mm
04:54 24.1 °C 13.3 °C 1013.6 hPa Sur 3.9 km/h 11.1 km/h 51% 0.0 mm
04:59 24 °C 13.2 °C 1013.6 hPa SSO 4.4 km/h 11.3 km/h 50.9% 0.0 mm
05:04 23.8 °C 13.1 °C 1013.6 hPa SSO 5.8 km/h 9.7 km/h 51% 0.0 mm
05:09 23.7 °C 13.2 °C 1013.5 hPa SO 5.5 km/h 9.7 km/h 51.8% 0.0 mm
05:14 23.7 °C 13.3 °C 1013.5 hPa SO 4.7 km/h 6.4 km/h 52% 0.0 mm
05:19 23.7 °C 13 °C 1013.5 hPa SSO 4.2 km/h 6.4 km/h 51.2% 0.0 mm
05:24 23.7 °C 12.9 °C 1013.5 hPa Sur 2.9 km/h 7.6 km/h 51% 0.0 mm
05:29 23.7 °C 12.9 °C 1013.5 hPa SSO 3.1 km/h 9.3 km/h 51.1% 0.0 mm
05:34 23.6 °C 13.1 °C 1013.6 hPa SO 3.9 km/h 9.7 km/h 51.8% 0.0 mm
05:39 23.5 °C 13.1 °C 1013.6 hPa SO 4.1 km/h 11.1 km/h 52% 0.0 mm
05:44 23.4 °C 13 °C 1013.6 hPa SO 5 km/h 13 km/h 52% 0.0 mm
05:49 23.3 °C 12.9 °C 1013.7 hPa OSO 5.6 km/h 12.9 km/h 52% 0.0 mm
05:54 23.3 °C 12.9 °C 1013.7 hPa OSO 7.6 km/h 11.3 km/h 52% 0.0 mm
05:59 23.2 °C 12.8 °C 1013.7 hPa OSO 7 km/h 14.8 km/h 52% 0.0 mm
06:04 23.2 °C 12.8 °C 1013.8 hPa SO 5.8 km/h 14.5 km/h 52% 0.0 mm
06:09 23.1 °C 12.7 °C 1013.8 hPa SO 6.2 km/h 13 km/h 52% 0.0 mm
06:14 23.1 °C 12.7 °C 1013.8 hPa SO 7.6 km/h 14 km/h 52% 0.0 mm
06:19 23.1 °C 12.7 °C 1013.8 hPa SO 7.8 km/h 14.8 km/h 52% 0.0 mm
06:24 23 °C 12.6 °C 1013.8 hPa OSO 8.4 km/h 14.8 km/h 52% 0.0 mm
06:29 22.9 °C 12.5 °C 1013.8 hPa OSO 8.2 km/h 14.5 km/h 52.1% 0.0 mm
06:34 22.8 °C 12.7 °C 1013.9 hPa OSO 7.6 km/h 11.3 km/h 53% 0.0 mm
06:39 22.7 °C 12.6 °C 1013.9 hPa OSO 7.2 km/h 9.7 km/h 53% 0.0 mm
06:44 22.7 °C 12.8 °C 1013.9 hPa Oeste 5.8 km/h 9.7 km/h 53.7% 0.0 mm
06:49 22.7 °C 12.9 °C 1013.9 hPa Oeste 5.5 km/h 8 km/h 54% 0.0 mm
06:54 22.7 °C 12.7 °C 1013.9 hPa SO 4.7 km/h 9.3 km/h 53.3% 0.0 mm
06:59 22.7 °C 12.2 °C 1013.9 hPa SSO 5 km/h 11.9 km/h 51.6% 0.0 mm
07:04 22.6 °C 12 °C 1013.9 hPa SSO 5.8 km/h 14.8 km/h 51% 0.0 mm
07:09 22.6 °C 11.9 °C 1013.9 hPa SSO 6.2 km/h 14.8 km/h 51% 0.0 mm
07:14 22.6 °C 11.9 °C 1013.9 hPa SO 7.6 km/h 14.5 km/h 51% 0.0 mm
07:19 22.6 °C 11.8 °C 1014.0 hPa SO 7.3 km/h 11.3 km/h 50.5% 0.0 mm
07:24 22.6 °C 11.7 °C 1014.0 hPa OSO 6.5 km/h 9.7 km/h 50% 0.0 mm
07:29 22.7 °C 11.7 °C 1014.0 hPa OSO 6.5 km/h 11.1 km/h 50% 0.0 mm
07:34 22.7 °C 11.7 °C 1014.1 hPa OSO 6.5 km/h 11.3 km/h 50% 0.0 mm
07:39 22.6 °C 11.7 °C 1014.1 hPa OSO 6.3 km/h 10 km/h 50% 0.0 mm
07:44 22.5 °C 11.6 °C 1014.1 hPa Oeste 5.8 km/h 11.9 km/h 50% 0.0 mm
07:49 22.4 °C 11.7 °C 1014.1 hPa Oeste 6 km/h 11.3 km/h 50.6% 0.0 mm
07:54 22.4 °C 11.5 °C 1014.1 hPa Oeste 6.9 km/h 9.7 km/h 50.2% 0.0 mm
07:59 22.5 °C 11.5 °C 1014.1 hPa Oeste 6.6 km/h 11.1 km/h 50% 0.0 mm
08:04 22.6 °C 11.5 °C 1014.3 hPa OSO 5.8 km/h 11.3 km/h 49.6% 0.0 mm
08:09 22.7 °C 11.4 °C 1014.3 hPa Oeste 5.8 km/h 9.7 km/h 49% 0.0 mm
08:14 22.7 °C 11.5 °C 1014.3 hPa Oeste 5.8 km/h 9.7 km/h 49% 0.0 mm
08:19 22.9 °C 11.5 °C 1014.4 hPa Oeste 5.2 km/h 8 km/h 48.5% 0.0 mm
08:24 23.2 °C 11.4 °C 1014.4 hPa OSO 3.2 km/h 8 km/h 47.5% 0.0 mm
08:29 23.3 °C 11.4 °C 1014.4 hPa Oeste 3.5 km/h 8 km/h 47% 0.0 mm
08:34 23.5 °C 11.5 °C 1014.5 hPa Oeste 4.7 km/h 8.7 km/h 47% 0.0 mm
08:39 23.7 °C 12.1 °C 1014.5 hPa SO 4.9 km/h 9.7 km/h 48.2% 0.0 mm
08:44 23.8 °C 12.8 °C 1014.5 hPa SSO 5.8 km/h 9.7 km/h 50.3% 0.0 mm
08:49 23.9 °C 13 °C 1014.5 hPa OSO 5.5 km/h 9.7 km/h 50.5% 0.0 mm
08:54 24.1 °C 13 °C 1014.5 hPa OSO 4.7 km/h 8 km/h 49.9% 0.0 mm
08:59 24.4 °C 12.9 °C 1014.5 hPa SO 4.4 km/h 9.3 km/h 48.5% 0.0 mm
09:04 24.8 °C 12.5 °C 1014.6 hPa Oeste 3.9 km/h 9.7 km/h 46.6% 0.0 mm
09:09 25.1 °C 12.2 °C 1014.6 hPa SSO 3.7 km/h 9.3 km/h 44.5% 0.0 mm
09:14 25.4 °C 11.9 °C 1014.6 hPa SSO 3.2 km/h 10 km/h 43.1% 0.0 mm
09:19 25.6 °C 11.7 °C 1014.7 hPa SO 3.6 km/h 9.7 km/h 41.9% 0.0 mm
09:24 25.8 °C 11.6 °C 1014.7 hPa Oeste 5 km/h 8 km/h 41% 0.0 mm
09:29 26.1 °C 11.8 °C 1014.7 hPa OSO 4.7 km/h 9.5 km/h 40.9% 0.0 mm
09:34 26.3 °C 11.9 °C 1015.1 hPa Oeste 3.9 km/h 11.9 km/h 40.6% 0.0 mm
09:39 26.4 °C 11.7 °C 1015.1 hPa OSO 4.6 km/h 13 km/h 40% 0.0 mm
09:44 26.4 °C 12 °C 1015.1 hPa OSO 6.9 km/h 12.9 km/h 40.8% 0.0 mm
09:49 26.5 °C 12.2 °C 1015.2 hPa OSO 6.8 km/h 11.3 km/h 41% 0.0 mm
09:54 26.7 °C 12.3 °C 1015.2 hPa OSO 6.5 km/h 11.3 km/h 41% 0.0 mm
09:59 26.9 °C 12.4 °C 1015.2 hPa OSO 6.5 km/h 11.1 km/h 40.5% 0.0 mm
10:04 27.2 °C 12.4 °C 1015.2 hPa Oeste 6.5 km/h 11.3 km/h 40.1% 0.0 mm
10:09 27.3 °C 12.5 °C 1015.2 hPa ONO 6.1 km/h 9.7 km/h 40% 0.0 mm
10:14 27.7 °C 12.6 °C 1015.2 hPa OSO 5 km/h 10 km/h 39.3% 0.0 mm
10:19 27.9 °C 12.4 °C 1015.3 hPa SO 4.7 km/h 9.7 km/h 38.2% 0.0 mm
10:24 28.2 °C 12.5 °C 1015.3 hPa SO 3.9 km/h 8 km/h 38% 0.0 mm
10:29 28.4 °C 12.5 °C 1015.3 hPa SSO 3.9 km/h 9.5 km/h 37.6% 0.0 mm
10:34 28.5 °C 12.3 °C 1015.4 hPa SO 3.9 km/h 14.8 km/h 37% 0.0 mm
10:39 28.5 °C 12.4 °C 1015.4 hPa SSO 4.3 km/h 14.5 km/h 36.8% 0.0 mm
10:44 28.8 °C 12.2 °C 1015.4 hPa SSO 5.8 km/h 9.7 km/h 36% 0.0 mm
10:49 29 °C 12.2 °C 1015.4 hPa SE 5.3 km/h 9.7 km/h 35.4% 0.0 mm
10:54 29.5 °C 12.1 °C 1015.2 hPa ENE 3.9 km/h 8.4 km/h 34.4% 0.0 mm
10:59 29.7 °C 12.2 °C 1015.2 hPa SSE 3.9 km/h 8 km/h 34.1% 0.0 mm
11:04 29.8 °C 11.9 °C 1015.2 hPa SSO 3.9 km/h 8.4 km/h 33.3% 0.0 mm
11:09 30 °C 12 °C 1015.2 hPa ENE 4 km/h 9.5 km/h 33% 0.0 mm
11:14 30.3 °C 11.9 °C 1015.2 hPa NE 4.7 km/h 9.7 km/h 32.4% 0.0 mm
11:19 30.4 °C 11.9 °C 1015.2 hPa NE 4.7 km/h 9.7 km/h 32.2% 0.0 mm
11:24 30.7 °C 12.1 °C 1015.2 hPa North 5 km/h 8 km/h 32.1% 0.0 mm
11:29 30.9 °C 12 °C 1015.2 hPa NNE 4.7 km/h 8.4 km/h 31.4% 0.0 mm
11:34 31.2 °C 12.1 °C 1015.3 hPa NNE 3.9 km/h 8.4 km/h 31.1% 0.0 mm
11:39 31.4 °C 12.2 °C 1015.3 hPa NNO 3.9 km/h 9.3 km/h 30.9% 0.0 mm
11:44 31.4 °C 12 °C 1015.3 hPa ONO 3.9 km/h 9.7 km/h 30.6% 0.0 mm
11:49 31.4 °C 12.2 °C 1015.3 hPa ONO 4.3 km/h 9.7 km/h 31% 0.0 mm
11:54 31.3 °C 12.2 °C 1015.2 hPa Oeste 5.8 km/h 9.7 km/h 31% 0.0 mm
11:59 31.5 °C 12.5 °C 1015.2 hPa NNE 5.6 km/h 11.1 km/h 31.4% 0.0 mm
12:04 31.8 °C 12.5 °C 1015.2 hPa ENE 5 km/h 11.3 km/h 31% 0.0 mm
12:09 32.2 °C 12.5 °C 1015.2 hPa Este 4.9 km/h 11.1 km/h 30.3% 0.0 mm
12:14 32.3 °C 12.6 °C 1015.2 hPa Este 4.7 km/h 11.3 km/h 30.2% 0.0 mm
12:19 32.4 °C 12.6 °C 1015.2 hPa ENE 4.9 km/h 11.1 km/h 30% 0.0 mm
12:24 32.7 °C 12.9 °C 1015.1 hPa ENE 5.8 km/h 18 km/h 30% 0.0 mm
12:29 32.8 °C 12 °C 1015.1 hPa NE 6.4 km/h 19.3 km/h 28.2% 0.0 mm
12:34 32.7 °C 12.1 °C 1015.1 hPa NE 8.7 km/h 19.3 km/h 28.5% 0.0 mm
12:39 32.7 °C 12.4 °C 1015.1 hPa NE 9 km/h 24.5 km/h 29% 0.0 mm
12:44 32.8 °C 12.4 °C 1015.1 hPa ENE 10 km/h 24.1 km/h 29% 0.0 mm
12:49 32.8 °C 12.7 °C 1015.1 hPa NE 10.7 km/h 24.1 km/h 29.4% 0.0 mm
12:54 33 °C 12.6 °C 1015.1 hPa Este 13 km/h 22.5 km/h 29.2% 0.0 mm
12:59 33.2 °C 12.7 °C 1015.1 hPa NE 11.7 km/h 13 km/h 28.8% 0.0 mm
13:04 33.3 °C 12.6 °C 1015.1 hPa NE 8.7 km/h 14.8 km/h 28.6% 0.0 mm
13:09 33.4 °C 12.7 °C 1015.0 hPa North 8.3 km/h 14.5 km/h 28.5% 0.0 mm
13:14 33.7 °C 12.1 °C 1015.0 hPa Este 6.9 km/h 13 km/h 27.1% 0.0 mm
13:19 33.9 °C 12.3 °C 1015.0 hPa NE 7.3 km/h 16.7 km/h 27% 0.0 mm
13:24 33.9 °C 12.5 °C 1014.9 hPa NNE 8.4 km/h 16.7 km/h 27.4% 0.0 mm
13:29 34.2 °C 12.3 °C 1014.9 hPa NE 8.8 km/h 20.9 km/h 26.7% 0.0 mm
13:34 34.3 °C 11.8 °C 1014.9 hPa NE 10 km/h 20.9 km/h 25.7% 0.0 mm
13:39 34.2 °C 11.1 °C 1014.9 hPa NE 10.5 km/h 22.5 km/h 24.6% 0.0 mm
13:44 34.4 °C 10.5 °C 1014.9 hPa ENE 12.2 km/h 24.5 km/h 23.4% 0.0 mm
13:49 34.4 °C 10 °C 1014.9 hPa Este 12.4 km/h 24.5 km/h 22.6% 0.0 mm
13:54 34.4 °C 9.2 °C 1014.9 hPa Este 13 km/h 27.8 km/h 21.4% 0.0 mm
13:59 34.5 °C 9 °C 1014.9 hPa ENE 13.3 km/h 27.4 km/h 21% 0.0 mm
14:04 34.7 °C 9.1 °C 1014.9 hPa ENE 14 km/h 25.7 km/h 20.9% 0.0 mm
14:09 34.8 °C 8.7 °C 1014.9 hPa ENE 13.9 km/h 27.8 km/h 20.2% 0.0 mm
14:14 34.9 °C 8.7 °C 1014.9 hPa ENE 13.7 km/h 27.4 km/h 20% 0.0 mm
14:19 34.9 °C 8.3 °C 1014.9 hPa NE 13 km/h 23.3 km/h 19.7% 0.0 mm
14:24 34.8 °C 8.5 °C 1014.8 hPa NE 11.1 km/h 26.2 km/h 20% 0.0 mm
14:29 34.7 °C 8.4 °C 1014.8 hPa ENE 12.1 km/h 25.9 km/h 20% 0.0 mm
14:34 34.7 °C 8.4 °C 1014.8 hPa NE 15.6 km/h 25.7 km/h 19.9% 0.0 mm
14:39 34.9 °C 8.4 °C 1014.5 hPa NE 15.2 km/h 28.2 km/h 19.7% 0.0 mm
14:44 34.7 °C 8 °C 1014.5 hPa NE 14 km/h 28.2 km/h 19.4% 0.0 mm
14:49 34.8 °C 8.5 °C 1014.6 hPa NE 14.8 km/h 30.9 km/h 20% 0.0 mm
14:54 34.8 °C 8 °C 1014.6 hPa NE 17.2 km/h 32.2 km/h 19.3% 0.0 mm
14:59 34.5 °C 7.2 °C 1014.6 hPa NE 17.2 km/h 32.2 km/h 18.6% 0.0 mm
15:04 34.6 °C 7.6 °C 1014.6 hPa NE 17.2 km/h 29.8 km/h 19% 0.0 mm
15:09 34.5 °C 8.2 °C 1014.6 hPa NE 17 km/h 30.6 km/h 19.8% 0.0 mm
15:14 34.7 °C 8.4 °C 1014.6 hPa ENE 16.4 km/h 29 km/h 20% 0.0 mm
15:19 34.8 °C 8.7 °C 1014.6 hPa ENE 15.8 km/h 27.4 km/h 20.3% 0.0 mm
15:24 34.7 °C 8.9 °C 1014.6 hPa NE 13.7 km/h 25.9 km/h 20.7% 0.0 mm
15:29 34.8 °C 8.4 °C 1014.6 hPa NE 13.7 km/h 25.7 km/h 19.8% 0.0 mm
15:34 34.7 °C 8.3 °C 1014.6 hPa NE 14 km/h 29.8 km/h 19.9% 0.0 mm
15:39 34.7 °C 8.7 °C 1014.6 hPa ENE 14.5 km/h 30.6 km/h 20.4% 0.0 mm
15:44 34.8 °C 9.1 °C 1014.6 hPa NE 16.1 km/h 28.2 km/h 20.8% 0.0 mm
15:49 34.8 °C 9.3 °C 1014.6 hPa NE 15.6 km/h 29.6 km/h 21.2% 0.0 mm
15:54 34.7 °C 9.3 °C 1014.5 hPa ENE 14 km/h 31.5 km/h 21.2% 0.0 mm
15:59 34.6 °C 10.3 °C 1014.5 hPa Este 13.5 km/h 32.2 km/h 22.8% 0.0 mm
16:04 34.6 °C 10.4 °C 1014.5 hPa Este 12.2 km/h 25.6 km/h 23% 0.0 mm
16:09 34.5 °C 10 °C 1014.5 hPa ENE 12.7 km/h 28.2 km/h 22.5% 0.0 mm
16:14 34.4 °C 10.2 °C 1014.5 hPa ENE 14 km/h 27.4 km/h 22.9% 0.0 mm
16:19 34.4 °C 10 °C 1014.5 hPa ENE 13.5 km/h 22.5 km/h 22.6% 0.0 mm
16:24 34.4 °C 10.4 °C 1014.4 hPa NE 12.2 km/h 29.6 km/h 23.1% 0.0 mm
16:29 34.4 °C 10.3 °C 1014.4 hPa ENE 13 km/h 29 km/h 23.1% 0.0 mm
16:34 34.4 °C 10.3 °C 1014.4 hPa ENE 15.6 km/h 29.6 km/h 23% 0.0 mm
16:39 34.4 °C 10.5 °C 1014.3 hPa ENE 14.8 km/h 29 km/h 23.2% 0.0 mm
16:44 34.4 °C 10.7 °C 1014.3 hPa NE 12.2 km/h 27.8 km/h 23.8% 0.0 mm
16:49 34.2 °C 10.5 °C 1014.3 hPa ENE 13.1 km/h 27.4 km/h 23.5% 0.0 mm
16:54 34.3 °C 10.8 °C 1014.3 hPa ENE 16.1 km/h 25.9 km/h 23.9% 0.0 mm
16:59 34.2 °C 10.7 °C 1014.3 hPa NE 15.2 km/h 25.9 km/h 23.9% 0.0 mm
17:04 34.3 °C 10.9 °C 1014.3 hPa NE 13 km/h 26.2 km/h 24.2% 0.0 mm
17:09 34.4 °C 11.5 °C 1014.3 hPa ENE 13 km/h 25.7 km/h 24.9% 0.0 mm
17:14 34.3 °C 11 °C 1014.3 hPa ENE 13 km/h 28.2 km/h 24.4% 0.0 mm
17:19 34.2 °C 10.8 °C 1014.3 hPa ENE 13.3 km/h 30.6 km/h 24.2% 0.0 mm
17:24 34.1 °C 10.9 °C 1014.1 hPa ENE 14 km/h 30.6 km/h 24.4% 0.0 mm
17:29 34.1 °C 10.6 °C 1014.1 hPa ENE 14.4 km/h 28.2 km/h 23.9% 0.0 mm
17:34 34 °C 10.5 °C 1014.1 hPa NE 15.6 km/h 30.9 km/h 23.9% 0.0 mm
17:39 33.9 °C 10.7 °C 1014.1 hPa ENE 15.7 km/h 32.2 km/h 24.3% 0.0 mm
17:44 33.8 °C 10.8 °C 1014.1 hPa NE 16.4 km/h 32.2 km/h 24.7% 0.0 mm
17:49 33.8 °C 10.8 °C 1014.1 hPa ENE 16 km/h 27.4 km/h 24.6% 0.0 mm
17:54 33.9 °C 10.7 °C 1014.1 hPa ENE 14 km/h 27.8 km/h 24.4% 0.0 mm
17:59 33.8 °C 10.5 °C 1014.1 hPa NE 13.9 km/h 27.4 km/h 24.1% 0.0 mm
18:04 33.9 °C 10.5 °C 1014.1 hPa NE 13.7 km/h 25.1 km/h 24% 0.0 mm
18:09 33.9 °C 10.6 °C 1014.0 hPa NE 13.7 km/h 26.2 km/h 24.2% 0.0 mm
18:14 33.7 °C 10.6 °C 1014.0 hPa ENE 14 km/h 25.7 km/h 24.6% 0.0 mm
18:19 33.6 °C 10.5 °C 1014.0 hPa ENE 14.1 km/h 24.1 km/h 24.4% 0.0 mm
18:24 33.6 °C 10.8 °C 1013.9 hPa ENE 14.8 km/h 24.1 km/h 25% 0.0 mm
18:29 33.6 °C 11.1 °C 1013.9 hPa NE 14.4 km/h 26.2 km/h 25.4% 0.0 mm
18:34 33.6 °C 11.5 °C 1013.9 hPa NE 13 km/h 25.9 km/h 26% 0.0 mm
18:39 33.7 °C 11.5 °C 1013.8 hPa NE 13 km/h 25.7 km/h 26% 0.0 mm
18:44 33.7 °C 11.1 °C 1013.8 hPa NE 13 km/h 25.9 km/h 25.3% 0.0 mm
18:49 33.6 °C 11.5 °C 1013.8 hPa NE 13.2 km/h 26.2 km/h 26% 0.0 mm
18:54 33.4 °C 11.3 °C 1013.6 hPa NE 14 km/h 25.9 km/h 26% 0.0 mm
18:59 33.3 °C 11.6 °C 1013.6 hPa NE 14.6 km/h 25.9 km/h 26.7% 0.0 mm
19:04 33.2 °C 12 °C 1013.6 hPa NE 16.1 km/h 25.7 km/h 27.6% 0.0 mm
19:09 33.1 °C 11.9 °C 1013.4 hPa NE 15.6 km/h 25.7 km/h 27.5% 0.0 mm
19:14 33.1 °C 12.2 °C 1013.4 hPa NE 14 km/h 24.1 km/h 28% 0.0 mm
19:19 33 °C 12 °C 1013.6 hPa NE 13.8 km/h 25.9 km/h 28% 0.0 mm
19:24 32.9 °C 11.7 °C 1013.6 hPa NE 13 km/h 26.2 km/h 27.4% 0.0 mm
19:29 32.8 °C 11.8 °C 1013.6 hPa NE 13.6 km/h 25.7 km/h 27.8% 0.0 mm
19:34 32.7 °C 12.1 °C 1013.6 hPa NE 15.6 km/h 25.1 km/h 28.5% 0.0 mm
19:39 32.6 °C 12.3 °C 1013.6 hPa NE 15.2 km/h 25.9 km/h 29% 0.0 mm
19:44 32.5 °C 12.1 °C 1013.6 hPa NE 13 km/h 25.9 km/h 29% 0.0 mm
19:49 32.3 °C 12.5 °C 1013.7 hPa NE 13.5 km/h 25.7 km/h 30% 0.0 mm
19:54 32.3 °C 12.5 °C 1013.7 hPa NE 14.8 km/h 22 km/h 30.1% 0.0 mm
19:59 32.2 °C 12.7 °C 1013.7 hPa ENE 13.9 km/h 22.5 km/h 30.6% 0.0 mm
20:04 32.1 °C 12.8 °C 1013.8 hPa ENE 11.9 km/h 20.9 km/h 31% 0.0 mm
20:09 31.9 °C 13.1 °C 1013.8 hPa ENE 11.5 km/h 20.9 km/h 31.9% 0.0 mm
20:14 31.9 °C 13.3 °C 1013.8 hPa ENE 10.3 km/h 20.9 km/h 32.3% 0.0 mm
20:19 31.8 °C 13.5 °C 1013.8 hPa Este 10.3 km/h 19.3 km/h 33% 0.0 mm
20:24 31.7 °C 13.4 °C 1013.8 hPa ENE 10.3 km/h 19.3 km/h 33% 0.0 mm
20:29 31.7 °C 13.4 °C 1013.8 hPa ENE 9.5 km/h 13.7 km/h 33% 0.0 mm
20:34 31.6 °C 13.4 °C 1013.9 hPa ENE 6.9 km/h 17.2 km/h 33% 0.0 mm
20:39 31.5 °C 13.3 °C 1013.9 hPa ENE 7.5 km/h 19 km/h 33% 0.0 mm
20:44 31.3 °C 13.2 °C 1013.9 hPa ENE 9.5 km/h 19.3 km/h 33.3% 0.0 mm
20:49 31.2 °C 13.5 °C 1014.2 hPa ENE 9.2 km/h 14.5 km/h 34% 0.0 mm
20:54 31.2 °C 13.4 °C 1014.2 hPa ENE 8.4 km/h 14.8 km/h 34% 0.0 mm
20:59 31 °C 13.3 °C 1014.2 hPa ENE 8.1 km/h 14.5 km/h 34% 0.0 mm
21:04 30.9 °C 13.2 °C 1014.2 hPa NE 7.6 km/h 11.9 km/h 34% 0.0 mm
21:09 30.8 °C 13.1 °C 1014.2 hPa NE 7.4 km/h 11.9 km/h 34% 0.0 mm
21:14 30.7 °C 13.1 °C 1014.2 hPa NE 6.9 km/h 13.7 km/h 34.2% 0.0 mm
21:19 30.5 °C 13.3 °C 1014.3 hPa NE 7.3 km/h 14.5 km/h 35% 0.0 mm
21:24 30.3 °C 13.5 °C 1014.3 hPa NE 8.4 km/h 13 km/h 35.7% 0.0 mm
21:29 30.2 °C 13.6 °C 1014.3 hPa NE 8.4 km/h 12.9 km/h 36.4% 0.0 mm
21:34 29.9 °C 13.7 °C 1014.4 hPa NE 8.7 km/h 14.8 km/h 37.3% 0.0 mm
21:39 29.8 °C 13.9 °C 1014.4 hPa NE 8.7 km/h 14.5 km/h 38% 0.0 mm
21:44 29.7 °C 14.2 °C 1014.4 hPa NE 8.7 km/h 14.8 km/h 38.8% 0.0 mm
21:49 29.5 °C 14.4 °C 1014.4 hPa NE 8.7 km/h 14.5 km/h 39.9% 0.0 mm
21:54 29.3 °C 14.4 °C 1014.3 hPa NE 8.7 km/h 13 km/h 40.2% 0.0 mm
21:59 29.2 °C 14.5 °C 1014.3 hPa NE 8.6 km/h 13 km/h 41% 0.0 mm
22:04 28.9 °C 14.5 °C 1014.4 hPa NE 8.4 km/h 13 km/h 41.5% 0.0 mm
22:09 28.8 °C 14.6 °C 1014.4 hPa NE 8.4 km/h 11.3 km/h 42% 0.0 mm
22:14 28.7 °C 14.8 °C 1014.4 hPa NNE 8.4 km/h 11.3 km/h 42.8% 0.0 mm
22:19 28.5 °C 14.8 °C 1014.4 hPa NE 8 km/h 11.3 km/h 43.3% 0.0 mm
22:24 28.3 °C 15 °C 1014.4 hPa NE 6.9 km/h 13 km/h 44.4% 0.0 mm
22:29 28.2 °C 15.2 °C 1014.4 hPa NE 7.1 km/h 13 km/h 45.4% 0.0 mm
22:34 28 °C 15.4 °C 1014.7 hPa NE 7.6 km/h 12.9 km/h 46.2% 0.0 mm
22:39 27.9 °C 15.5 °C 1014.7 hPa NE 7.2 km/h 11.3 km/h 47% 0.0 mm
22:44 27.8 °C 15.5 °C 1014.7 hPa NE 5.8 km/h 9.7 km/h 47.2% 0.0 mm
22:49 27.7 °C 15.6 °C 1014.7 hPa NE 5.9 km/h 11.1 km/h 48% 0.0 mm
22:54 27.6 °C 15.6 °C 1014.7 hPa NE 6.5 km/h 11.3 km/h 48% 0.0 mm
22:59 27.5 °C 15.5 °C 1014.7 hPa NE 6.5 km/h 11.3 km/h 48% 0.0 mm
23:04 27.5 °C 15.5 °C 1014.8 hPa NE 6.5 km/h 11.1 km/h 48% 0.0 mm
23:09 27.4 °C 15.6 °C 1014.8 hPa NE 6.9 km/h 13 km/h 48.5% 0.0 mm
23:14 27.3 °C 15.7 °C 1014.8 hPa NE 8.4 km/h 12.9 km/h 49% 0.0 mm
23:19 27.3 °C 15.7 °C 1014.8 hPa NE 8.4 km/h 12.9 km/h 49% 0.0 mm
23:24 27.3 °C 15.7 °C 1014.8 hPa NE 6.6 km/h 9.3 km/h 49% 0.0 mm
23:29 27.3 °C 15.7 °C 1014.8 hPa NE 6.5 km/h 11.1 km/h 49% 0.0 mm
23:34 27.3 °C 15.7 °C 1014.9 hPa NE 6.5 km/h 11.3 km/h 49.1% 0.0 mm
23:39 27.2 °C 15.9 °C 1014.9 hPa NE 6.3 km/h 10 km/h 50% 0.0 mm
23:44 27.2 °C 15.9 °C 1014.9 hPa NE 5.8 km/h 10.3 km/h 50% 0.0 mm
23:49 27.2 °C 15.8 °C 1014.9 hPa NE 5.8 km/h 10 km/h 50% 0.0 mm
23:54 27.1 °C 15.8 °C 1014.9 hPa NE 5.8 km/h 11.1 km/h 50% 0.0 mm
23:59 26.9 °C 15.9 °C 1014.9 hPa NE 6 km/h 11.3 km/h 50.9% 0.0 mm
Murcia-Puente Tocinos, España
Compliments of Weather Underground - 2.75 mb

La estación de MeteoMurcia.com, publica sus datos en los siguientes proyectos:

Weather Underground PWS IMURCIAP2 Meteoclimatic www.awekas.at

W3Counter
Web Analytics